Latest Weather Observations for Amberley

IDQ60901

Issued at 5:41 pm EST Sunday 29 May 2016 (issued every 10 minutes, with the page automatically refreshed every 10 minutes)

About weather observations | Map of Brisbane area stations | Latest observations for Brisbane area | Other Formats
Station Details ID: 040004 Name: AMBERLEY AMO Lat: -27.63 Lon: 152.71 Height: 24.2 m
Data from the previous 72 hours. | See also: Recent months at Amberley
Date/Time
EST
Tmp

°C
App
Tmp
°C
Dew
Point
°C
Rel
Hum
%
Delta-T

°C
Wind Press
QNH
hPa
Press
MSL
hPa
Rain
since
9 am
mm
Dir
 
Spd
km/h
Gust
km/h
Spd
kts
Gust
kts
29/05:30pm 14.7 10.9 1.9 42 5.6 NNW 11 15 6 8 1017.1 1017.1 0.0
29/05:00pm 16.8 12.9 1.4 35 6.8 NNW 11 13 6 7 1016.8 1016.8 0.0
29/04:30pm 21.0 16.3 0.6 25 9.2 NW 15 19 8 10 1016.5 1016.5 0.0
29/04:00pm 22.2 16.9 -0.5 22 10.1 NW 17 24 9 13 1016.2 1016.2 0.0
29/03:30pm 23.0 18.6 0.1 22 10.4 NW 13 24 7 13 1015.9 1015.9 0.0
29/03:00pm 23.4 19.0 0.5 22 10.5 NW 13 19 7 10 1015.6 1015.6 0.0
29/02:30pm 23.2 20.0 0.5 22 10.4 NW 7 15 4 8 1015.5 1015.5 0.0
29/02:00pm 23.3 18.0 -0.9 20 10.8 WNW 17 20 9 11 1015.6 1015.6 0.0
29/01:30pm 23.7 18.8 -0.8 19 11.0 W 15 22 8 12 1015.5 1015.5 0.0
29/01:00pm 22.3 16.9 -1.0 21 10.3 WNW 17 24 9 13 1015.8 1015.8 0.0
29/12:30pm 21.4 16.7 0.6 25 9.4 NW 15 24 8 13 1016.1 1016.1 0.0
29/12:00pm 21.5 16.8 1.2 26 9.3 WSW 15 22 8 12 1016.6 1016.6 0.0
29/11:30am 21.1 17.0 0.0 24 9.4 WNW 11 20 6 11 1017.0 1017.0 0.0
29/11:00am 20.9 16.1 0.4 25 9.2 WNW 15 24 8 13 1017.5 1017.5 0.0
29/10:30am 19.6 16.5 1.5 30 8.2 SW 7 11 4 6 1017.8 1017.8 0.0
29/10:00am 17.9 15.0 2.6 36 7.0 SSW 7 15 4 8 1018.1 1018.1 0.0
29/09:30am 17.3 13.6 2.2 36 6.8 NW 11 15 6 8 1018.5 1018.5 0.0
29/09:00am 16.1 11.7 2.5 40 6.1 W 15 19 8 10 1018.8 1018.8 0.0
29/08:30am 14.9 10.1 2.5 43 5.5 WNW 17 22 9 12 1018.6 1018.6 0.0
29/08:00am 13.7 8.6 3.2 49 4.7 NW 19 22 10 12 1018.3 1018.3 0.0
29/07:30am 12.1 7.4 3.3 55 3.9 NW 17 20 9 11 1018.0 1018.0 0.0
29/07:00am 8.6 5.5 3.5 70 2.2 NW 9 11 5 6 1017.6 1017.6 0.0
29/06:30am 8.0 5.4 3.0 71 2.1 NNW 6 11 3 6 1017.2 1017.2 0.0
29/06:00am 9.1 4.8 3.3 67 2.5 NW 15 19 8 10 1016.7 1016.7 0.0
29/05:30am 9.7 5.0 3.2 64 2.8 NW 17 20 9 11 1016.6 1016.6 0.0
29/05:00am 8.9 3.8 3.3 68 2.4 NNW 19 22 10 12 1016.3 1016.3 0.0
29/04:30am 9.9 6.0 3.2 63 2.9 NNW 13 17 7 9 1016.1 1016.1 0.0
29/04:00am 9.6 6.4 3.1 64 2.8 NNW 9 15 5 8 1016.2 1016.2 0.0
29/03:30am 10.2 5.5 3.0 61 3.1 NW 17 20 9 11 1016.0 1016.0 0.0
29/03:00am 10.7 5.6 2.8 58 3.4 NW 19 24 10 13 1015.9 1015.9 0.0
29/02:30am 9.7 4.5 2.4 60 3.1 NW 19 20 10 11 1015.9 1015.9 0.0
29/02:00am 10.2 6.8 1.9 56 3.5 NNE 9 9 5 5 1015.9 1015.9 0.0
29/01:30am 10.5 5.9 1.4 53 3.8 WNW 15 17 8 9 1015.8 1015.8 0.0
29/01:00am 11.2 7.7 1.5 51 4.1 N 9 11 5 6 1015.7 1015.7 0.0
29/12:30am 11.2 7.0 1.5 51 4.1 W 13 15 7 8 1015.3 1015.3 0.0
29/12:00am 12.5 9.4 1.5 47 4.7 E 7 9 4 5 1015.2 1015.2 0.0
 
Date/Time
EST
Tmp

°C
App
Tmp
°C
Dew
Point
°C
Rel
Hum
%
Delta-T

°C
Wind Press
QNH
hPa
Press
MSL
hPa
Rain
since
9 am
mm
Dir
 
Spd
km/h
Gust
km/h
Spd
kts
Gust
kts
28/11:30pm 14.8 9.7 0.5 37 6.1 W 17 24 9 13 1014.9 1014.9 0.0
28/11:00pm 13.7 9.8 1.4 43 5.3 SSW 11 15 6 8 1015.2 1015.2 0.0
28/10:30pm 15.6 11.2 0.4 35 6.5 W 13 20 7 11 1015.1 1015.1 0.0
28/10:00pm 15.7 10.1 -0.1 34 6.7 W 19 24 10 13 1015.1 1015.1 0.0
28/09:30pm 15.8 9.9 -0.6 32 6.9 W 20 26 11 14 1015.0 1015.0 0.0
28/09:00pm 16.0 10.3 -0.6 32 7.0 WNW 19 26 10 14 1015.0 1015.0 0.0
28/08:30pm 16.7 11.9 0.2 32 7.1 W 15 19 8 10 1015.0 1015.0 0.0
28/08:00pm 17.0 12.2 0.4 32 7.2 W 15 22 8 12 1014.5 1014.5 0.0
28/07:30pm 16.4 11.3 0.8 34 6.8 W 17 24 9 13 1014.2 1014.2 0.0
28/07:00pm 15.8 11.2 1.8 39 6.2 W 15 19 8 10 1013.9 1013.9 0.0
28/06:30pm 16.8 11.8 1.1 34 6.9 W 17 20 9 11 1013.4 1013.3 0.0
28/06:00pm 18.7 13.9 0.3 29 8.1 W 15 19 8 10 1012.8 1012.7 0.0
28/05:30pm 19.5 12.6 0.0 27 8.6 W 26 35 14 19 1012.4 1012.3 0.0
28/05:00pm 19.9 12.7 0.4 27 8.7 W 28 41 15 22 1011.7 1011.6 0.0
28/04:30pm 21.0 12.2 -0.9 23 9.6 W 35 50 19 27 1011.2 1011.1 0.0
28/04:13pm 21.5 12.8 -0.6 23 9.8 W 35 54 19 29 1010.9 1010.8 0.0
28/04:00pm 21.8 13.2 0.0 23 9.8 WNW 35 52 19 28 1010.7 1010.6 0.0
28/03:33pm 22.2 12.8 0.0 23 10.0 W 39 57 21 31 1010.3 1010.2 0.0
28/03:30pm 22.0 12.6 0.0 23 9.9 W 39 54 21 29 1010.2 1010.1 0.0
28/03:12pm 22.3 13.3 0.3 23 10.0 W 37 57 20 31 1010.1 1010.0 0.0
28/03:00pm 22.2 13.6 0.4 23 9.9 W 35 52 19 28 1010.1 1010.0 0.0
28/02:42pm 22.3 13.8 0.6 23 9.9 W 35 56 19 30 1010.3 1010.2 0.0
28/02:30pm 22.6 14.7 0.9 24 10.0 W 32 44 17 24 1010.3 1010.2 0.0
28/02:00pm 22.5 14.9 0.7 23 10.0 W 30 52 16 28 1010.2 1010.1 0.0
28/01:34pm 21.2 13.4 1.8 27 9.0 WSW 32 50 17 27 1010.2 1010.1 0.0
28/01:30pm 23.1 15.1 1.9 25 10.0 WSW 33 50 18 27 1010.2 1010.1 0.0
28/01:00pm 22.6 14.8 2.0 25 9.7 W 32 48 17 26 1010.2 1010.1 0.0
28/12:36pm 22.4 14.5 1.2 24 9.8 W 32 52 17 28 1010.7 1010.6 0.0
28/12:30pm 23.2 15.4 1.7 24 10.1 W 32 46 17 25 1010.7 1010.6 0.0
28/12:09pm 21.9 14.4 0.9 25 9.6 W 30 50 16 27 1010.9 1010.8 0.0
28/12:00pm 21.8 14.4 1.8 26 9.3 WSW 30 41 16 22 1011.0 1010.9 0.0
28/11:30am 22.4 14.6 1.9 26 9.6 WSW 32 39 17 21 1011.3 1011.2 0.0
28/11:01am 21.6 14.2 2.1 27 9.1 W 30 48 16 26 1011.9 1011.8 0.0
28/11:00am 21.1 13.4 2.2 28 8.8 W 32 48 17 26 1011.9 1011.8 0.0
28/10:30am 20.3 13.9 3.1 32 8.1 W 26 35 14 19 1012.5 1012.4 0.0
28/10:00am 19.9 14.6 3.1 33 7.9 WSW 20 32 11 17 1012.9 1012.8 0.0
28/09:30am 18.7 14.0 3.3 36 7.2 W 17 26 9 14 1013.2 1013.1 0.0
28/09:00am 17.1 13.8 4.7 44 5.9 NW 11 15 6 8 1013.4 1013.3 0.0
28/08:30am 16.0 13.1 4.5 46 5.4 WSW 9 13 5 7 1013.4 1013.3 0.0
28/08:00am 14.1 11.9 5.1 54 4.2 W 6 9 3 5 1013.2 1013.1 0.0
28/07:30am 10.1 8.8 6.0 76 1.9 SE 2 6 1 3 1013.0 1012.9 0.0
28/07:00am 9.0 6.4 4.2 72 2.1 NW 7 9 4 5 1012.7 1012.6 0.0
28/06:30am 9.8 7.2 4.1 67 2.5 NNW 7 11 4 6 1012.4 1012.3 0.0
28/06:00am 10.1 7.5 4.3 67 2.6 N 7 9 4 5 1012.0 1011.9 0.0
28/05:30am 10.5 7.3 5.0 69 2.5 NNW 11 13 6 7 1012.0 1011.9 0.0
28/05:00am 8.3 4.2 4.2 75 1.8 NW 15 15 8 8 1011.8 1011.7 0.0
28/04:30am 7.4 3.4 3.1 74 1.8 NW 13 15 7 8 1011.7 1011.6 0.0
28/04:00am 7.4 4.9 3.7 77 1.6 NNW 6 11 3 6 1011.8 1011.7 0.0
28/03:30am 9.8 6.5 2.5 60 3.1 N 9 11 5 6 1011.6 1011.5 0.0
28/03:00am 10.1 6.9 3.2 62 3.0 NW 9 13 5 7 1011.2 1011.1 0.0
28/02:30am 10.6 8.4 3.3 60 3.2 NNE 4 11 2 6 1011.2 1011.1 0.0
28/02:00am 12.8 8.5 3.4 53 4.2 W 15 19 8 10 1011.0 1010.9 0.0
28/01:30am 13.6 8.9 3.4 50 4.6 W 17 19 9 10 1011.1 1011.0 0.0
28/01:00am 13.4 9.2 3.9 52 4.3 W 15 19 8 10 1010.9 1010.8 0.0
28/12:30am 13.7 9.9 3.8 51 4.5 W 13 15 7 8 1011.1 1011.0 0.0
28/12:00am 14.3 10.9 3.8 49 4.8 SW 11 13 6 7 1011.1 1011.0 0.0
 
Date/Time
EST
Tmp

°C
App
Tmp
°C
Dew
Point
°C
Rel
Hum
%
Delta-T

°C
Wind Press
QNH
hPa
Press
MSL
hPa
Rain
since
9 am
mm
Dir
 
Spd
km/h
Gust
km/h
Spd
kts
Gust
kts
27/11:30pm 14.5 10.2 3.5 47 5.0 WNW 15 17 8 9 1011.1 1011.0 0.0
27/11:00pm 13.6 9.5 4.5 54 4.2 WNW 15 17 8 9 1011.4 1011.3 0.0
27/10:30pm 11.2 7.4 5.6 68 2.6 NW 15 19 8 10 1011.3 1011.2 0.0
27/10:00pm 12.7 9.6 5.7 62 3.3 NW 11 15 6 8 1011.3 1011.2 0.0
27/09:30pm 14.0 12.0 7.0 62 3.4 WSW 7 9 4 5 1011.2 1011.1 0.0
27/09:00pm 15.7 13.8 6.7 55 4.4 S 6 9 3 5 1011.0 1010.9 0.0
27/08:30pm 17.5 16.0 6.6 48 5.4 S 4 7 2 4 1010.7 1010.6 0.0
27/08:00pm 17.6 13.2 6.5 48 5.5 W 19 26 10 14 1010.6 1010.5 0.0
27/07:30pm 18.6 14.1 6.3 44 6.1 W 19 26 10 14 1010.1 1010.0 0.0
27/07:00pm 19.0 14.4 6.4 43 6.3 W 20 28 11 15 1009.6 1009.5 0.0
27/06:30pm 19.5 14.6 7.1 44 6.3 W 22 32 12 17 1009.2 1009.1 0.0
27/06:00pm 19.9 15.1 7.4 44 6.4 W 22 28 12 15 1008.8 1008.7 0.0
27/05:30pm 20.8 15.6 7.4 42 6.9 W 24 35 13 19 1008.3 1008.2 0.0
27/05:00pm 21.9 16.4 7.7 40 7.4 W 26 37 14 20 1008.0 1007.9 0.0
27/04:30pm 22.8 17.4 8.0 38 7.8 WSW 26 35 14 19 1007.5 1007.4 0.0
27/04:00pm 23.8 18.8 8.0 36 8.4 WSW 24 37 13 20 1007.0 1006.9 0.0
27/03:30pm 23.3 18.1 7.2 35 8.4 W 24 39 13 21 1006.4 1006.3 0.0
27/03:00pm 24.3 18.3 7.1 33 9.0 W 28 35 15 19 1006.2 1006.1 0.0
27/02:30pm 23.9 18.0 7.3 34 8.7 W 28 43 15 23 1006.3 1006.2 0.0
27/02:00pm 24.9 18.5 7.0 31 9.4 W 30 43 16 23 1006.3 1006.2 0.0
27/01:30pm 23.3 16.6 8.0 37 8.1 W 33 54 18 29 1006.6 1006.5 0.0
27/01:04pm 24.5 18.9 8.8 36 8.5 W 28 52 15 28 1006.5 1006.4 0.0
27/01:00pm 24.0 18.8 8.8 38 8.2 W 26 35 14 19 1006.6 1006.5 0.0
27/12:30pm 23.6 18.6 9.4 40 7.7 W 26 39 14 21 1007.2 1007.1 0.0
27/12:00pm 23.3 17.1 9.5 41 7.5 WNW 32 43 17 23 1007.8 1007.7 0.0
27/11:30am 24.3 19.4 10.0 40 7.9 WNW 26 35 14 19 1007.8 1007.7 0.0
27/11:00am 23.1 17.8 9.9 43 7.2 W 28 37 15 20 1008.3 1008.2 0.0
27/10:30am 22.9 17.7 10.1 44 7.0 W 28 41 15 22 1008.4 1008.3 0.0
27/10:00am 22.2 16.8 10.8 48 6.3 W 30 41 16 22 1009.1 1009.0 0.0
27/09:30am 21.1 16.4 12.0 56 5.1 WNW 28 35 15 19 1009.1 1009.0 0.0
27/09:00am 20.8 17.2 12.9 60 4.5 W 24 35 13 19 1009.2 1009.1 0.4
27/08:30am 20.1 16.8 13.9 67 3.6 WNW 24 32 13 17 1008.7 1008.6 0.4
27/08:00am 20.0 17.6 15.4 75 2.7 NW 22 30 12 16 1008.5 1008.4 0.4
27/07:30am 19.1 16.7 15.4 79 2.2 NW 22 30 12 16 1008.2 1008.1 0.4
27/07:00am 18.6 16.6 15.6 83 1.8 WNW 20 28 11 15 1008.2 1008.1 0.4
27/06:30am 18.8 16.8 15.6 82 1.9 NW 20 28 11 15 1007.5 1007.4 0.4
27/06:00am 19.0 17.1 15.8 82 1.9 NW 20 28 11 15 1007.3 1007.2 0.4
27/05:30am 18.9 17.1 16.1 84 1.7 WNW 20 28 11 15 1007.2 1007.1 0.4
27/05:00am 18.9 17.4 16.2 84 1.6 NW 19 24 10 13 1006.8 1006.7 0.4
27/04:30am 19.1 18.0 16.4 84 1.6 NW 17 24 9 13 1006.6 1006.5 0.4
27/04:00am 19.1 17.6 16.4 84 1.6 WNW 19 22 10 12 1006.8 1006.7 0.4
27/03:30am 19.3 18.6 16.5 84 1.7 W 15 22 8 12 1006.8 1006.7 0.4
27/03:00am 20.4 18.5 15.7 74 2.8 W 20 26 11 14 1006.9 1006.8 0.2
27/02:30am 20.2 18.6 15.9 76 2.6 NW 19 24 10 13 1006.3 1006.2 0.2
27/02:00am 19.5 18.7 16.2 81 2.0 NW 15 17 8 9 1006.5 1006.4 0.2
27/01:30am 19.6 19.5 15.9 79 2.2 NW 11 13 6 7 1007.0 1006.9 0.2
27/01:00am 18.7 18.5 15.7 83 1.8 NNW 11 13 6 7 1006.9 1006.8 0.2
27/12:30am 19.4 19.2 15.7 79 2.2 NW 11 13 6 7 1006.6 1006.5 0.2
27/12:00am 20.4 20.9 15.5 73 2.9 WNW 7 9 4 5 1006.9 1006.8 0.2
 
Date/Time
EST
Tmp

°C
App
Tmp
°C
Dew
Point
°C
Rel
Hum
%
Delta-T

°C
Wind Press
QNH
hPa
Press
MSL
hPa
Rain
since
9 am
mm
Dir
 
Spd
km/h
Gust
km/h
Spd
kts
Gust
kts
26/11:30pm 20.3 20.5 15.8 75 2.7 WNW 9 15 5 8 1008.0 1007.9 0.2
26/11:00pm 21.6 20.2 14.5 64 4.2 WSW 15 22 8 12 1008.1 1008.0 0.2
26/10:30pm 22.1 20.6 14.3 61 4.6 SW 15 22 8 12 1008.2 1008.1 0.2
26/10:00pm 25.2 21.6 11.7 43 7.7 NW 22 32 12 17 1007.1 1007.0 0.0
26/09:30pm 25.2 21.7 10.8 40 8.1 NW 20 28 11 15 1006.4 1006.3 0.0
26/09:00pm 24.8 21.5 10.9 41 7.8 NNW 19 28 10 15 1006.3 1006.2 0.0
26/08:30pm 25.8 22.2 10.7 38 8.5 NNW 20 28 11 15 1006.4 1006.3 0.0
26/08:00pm 26.1 22.7 10.6 37 8.7 NNW 19 28 10 15 1006.7 1006.6 0.0
26/07:30pm 26.5 22.5 10.5 36 9.0 NNW 22 33 12 18 1006.5 1006.4 0.0
26/07:00pm 26.8 23.2 10.0 34 9.4 NNW 19 30 10 16 1006.5 1006.4 0.0
26/06:30pm 27.3 24.0 9.5 32 9.9 NNW 17 26 9 14 1006.6 1006.5 0.0
26/06:00pm 26.4 24.9 9.3 34 9.4 ENE 7 9 4 5 1006.6 1006.5 0.0

Latest Capital City Observations: Canberra | Sydney | Melbourne | Brisbane | Adelaide | Perth | Hobart | Darwin

Other Formats:

Comma delimited format used in spreadsheet applications
http://www.bom.gov.au/fwo/IDQ60901/IDQ60901.94568.axf

JavaScript Object Notation format (JSON) in row-major order
http://www.bom.gov.au/fwo/IDQ60901/IDQ60901.94568.json